Time;durP1;ratioP1;P1;durP2;ratioP2;P2;SDS_P1;SDS_P2;PMS_P1;PMS_P2;Temp;Humidity;BMP_temperature;BMP_pressure;BME280_temperature;BME280_humidity;BME280_pressure;Samples;Min_cycle;Max_cycle;Signal;HPM_P1;HPM_P2
2023/05/16 00:00:35;;;;;;;16.67;3.20;;;;;;;;;;6245091;23;20688;-80
2023/05/16 00:03:02;;;;;;;14.57;3.58;;;;;;;;;;6246312;23;20376;-80
2023/05/16 00:05:28;;;;;;;15.95;3.33;;;;;;;;;;6221157;23;20400;-79
2023/05/16 00:07:54;;;;;;;18.70;4.10;;;;;;;;;;6219309;23;20365;-79
2023/05/16 00:10:20;;;;;;;18.08;3.53;;;;;;;;;;6246131;23;20377;-79
2023/05/16 00:12:50;;;;;;;18.55;3.28;;;;;;;;;;6246557;23;20377;-81
2023/05/16 00:15:17;;;;;;;17.48;3.33;;;;;;;;;;6220263;23;20373;-80
2023/05/16 00:17:46;;;;;;;15.07;3.50;;;;;;;;;;6245416;23;20362;-80
2023/05/16 00:20:13;;;;;;;15.88;2.92;;;8.30;99.90;;;;;;6195703;23;20845;-81
2023/05/16 00:22:39;;;;;;;19.73;3.40;;;;;;;;;;6220108;23;20362;-80
2023/05/16 00:25:05;;;;;;;18.05;3.67;;;;;;;;;;6246264;23;20393;-80
2023/05/16 00:27:33;;;;;;;13.77;3.10;;;;;;;;;;6220238;23;20431;-79
2023/05/16 00:30:00;;;;;;;14.77;3.17;;;;;;;;;;6246147;23;20449;-80
2023/05/16 00:32:26;;;;;;;13.25;3.10;;;;;;;;;;6245305;23;20392;-85
2023/05/16 00:34:52;;;;;;;12.15;3.25;;;;;;;;;;6245453;23;20362;-80
2023/05/16 00:37:18;;;;;;;16.05;3.10;;;;;;;;;;6244293;23;20424;-81
2023/05/16 00:39:44;;;;;;;17.27;3.33;;;;;;;;;;6220151;23;20369;-80
2023/05/16 00:42:10;;;;;;;15.13;3.53;;;;;;;;;;6220890;23;20365;-80
2023/05/16 00:44:36;;;;;;;11.85;2.90;;;;;;;;;;6194764;23;20374;-81
2023/05/16 00:47:03;;;;;;;13.13;2.80;;;;;;;;;;6220700;23;20448;-80
2023/05/16 00:49:29;;;;;;;14.23;2.88;;;;;;;;;;6245130;23;20419;-81
2023/05/16 00:51:56;;;;;;;10.52;2.58;;;;;;;;;;6245009;23;20412;-81
2023/05/16 00:54:25;;;;;;;13.20;2.70;;;;;;;;;;6245950;23;20376;-80
2023/05/16 00:56:51;;;;;;;13.93;3.20;;;;;;;;;;6245143;23;20673;-81
2023/05/16 00:59:18;;;;;;;14.75;3.45;;;;;;;;;;6220463;23;20372;-80
2023/05/16 01:01:47;;;;;;;14.25;2.72;;;;;;;;;;6243988;23;20443;-79
2023/05/16 01:04:14;;;;;;;11.32;2.80;;;;;;;;;;6244998;23;20756;-81
2023/05/16 01:06:40;;;;;;;13.35;2.85;;;;;;;;;;6245995;23;20449;-81
2023/05/16 01:09:07;;;;;;;14.57;3.28;;;;;;;;;;6218089;23;20370;-81
2023/05/16 01:11:35;;;;;;;14.63;2.53;;;;;;;;;;6243524;23;20473;-81
2023/05/16 01:14:13;;;;;;;11.88;2.60;;;;;;;;;;6216804;23;20388;-82
2023/05/16 01:17:27;;;;;;;15.35;3.20;;;8.30;99.90;;;;;;6244103;23;20369;-81
2023/05/16 01:19:53;;;;;;;14.23;2.92;;;;;;;;;;6232641;23;20711;-81
2023/05/16 01:22:25;;;;;;;20.05;3.58;;;;;;;;;;6218148;23;20867;-80
2023/05/16 01:24:54;;;;;;;11.45;2.53;;;;;;;;;;6218865;23;20366;-80
2023/05/16 01:27:21;;;;;;;11.60;2.88;;;;;;;;;;6217017;23;20423;-81
2023/05/16 01:29:47;;;;;;;12.23;3.13;;;;;;;;;;6241729;23;20397;-81
2023/05/16 01:32:13;;;;;;;16.98;2.85;;;;;;;;;;6218647;23;20393;-82
2023/05/16 01:34:40;;;;;;;13.65;2.97;;;;;;;;;;6218266;23;20420;-81
2023/05/16 01:37:12;;;;;;;14.70;3.03;;;;;;;;;;6243939;23;20362;-81
2023/05/16 01:39:53;;;;;;;14.77;2.60;;;;;;;;;;6244735;23;20691;-81
2023/05/16 01:42:21;;;;;;;16.35;3.10;;;;;;;;;;6243926;23;20370;-80
2023/05/16 01:45:04;;;;;;;16.77;3.00;;;7.80;99.90;;;;;;6242786;23;20898;-79
2023/05/16 01:47:32;;;;;;;11.35;2.70;;;;;;;;;;6243926;23;20370;-80
2023/05/16 01:49:58;;;;;;;11.35;2.78;;;;;;;;;;6218796;23;20400;-80
2023/05/16 01:52:44;;;;;;;10.73;3.22;;;;;;;;;;6247917;23;20394;-80
2023/05/16 01:55:35;;;;;;;14.02;2.85;;;7.50;99.90;;;;;;6202492;23;20670;-80
2023/05/16 01:58:02;;;;;;;15.90;3.55;;;;;;;;;;6227025;23;20374;-81
2023/05/16 02:00:29;;;;;;;18.42;3.40;;;;;;;;;;6243934;23;20366;-81
2023/05/16 02:02:55;;;;;;;17.95;3.42;;;;;;;;;;6218743;23;20401;-81
2023/05/16 02:05:21;;;;;;;14.73;3.10;;;;;;;;;;6244042;23;20749;-80
2023/05/16 02:07:47;;;;;;;15.40;3.60;;;;;;;;;;6240831;23;20366;-80
2023/05/16 02:10:13;;;;;;;11.75;2.67;;;;;;;;;;6217842;23;20373;-81
2023/05/16 02:12:39;;;;;;;17.45;3.45;;;;;;;;;;6218940;23;20369;-81
2023/05/16 02:15:06;;;;;;;16.90;3.60;;;;;;;;;;6243628;23;20427;-81
2023/05/16 02:17:32;;;;;;;14.85;2.83;;;;;;;;;;6243434;23;20362;-80
2023/05/16 02:19:58;;;;;;;13.30;3.33;;;;;;;;;;6242165;23;20400;-80
2023/05/16 02:22:24;;;;;;;16.40;2.83;;;;;;;;;;6242323;23;20366;-81
2023/05/16 02:24:51;;;;;;;19.65;3.33;;;;;;;;;;6218538;23;20370;-81
2023/05/16 02:27:17;;;;;;;17.98;2.95;;;;;;;;;;6193571;23;20374;-81
2023/05/16 02:29:43;;;;;;;15.75;3.28;;;;;;;;;;6192220;23;20382;-80
2023/05/16 02:32:09;;;;;;;18.73;3.17;;;;;;;;;;6243485;23;20774;-79
2023/05/16 02:34:35;;;;;;;17.20;3.50;;;;;;;;;;6218648;23;20724;-80
2023/05/16 02:37:01;;;;;;;16.70;3.28;;;;;;;;;;6215698;23;20370;-80
2023/05/16 02:39:28;;;;;;;15.13;3.20;;;;;;;;;;6242607;23;20362;-80
2023/05/16 02:41:54;;;;;;;16.63;3.33;;;;;;;;;;6218452;23;20406;-80
2023/05/16 02:44:20;;;;;;;15.40;3.00;;;;;;;;;;6218370;23;20431;-79
2023/05/16 02:46:47;;;;;;;13.75;3.05;;;;;;;;;;6243120;23;20369;-81
2023/05/16 02:49:13;;;;;;;20.13;3.60;;;;;;;;;;6218338;23;20436;-82
2023/05/16 02:51:39;;;;;;;17.50;3.90;;;;;;;;;;6243545;23;20390;-80
2023/05/16 02:54:08;;;;;;;17.80;3.40;;;;;;;;;;6192936;23;20362;-80
2023/05/16 02:56:34;;;;;;;15.73;2.95;;;;;;;;;;6219020;23;20362;-81
2023/05/16 02:59:01;;;;;;;17.50;3.53;;;;;;;;;;6243750;23;20423;-80
2023/05/16 03:01:27;;;;;;;14.90;3.20;;;;;;;;;;6242860;23;20365;-80
2023/05/16 03:03:53;;;;;;;15.95;3.45;;;;;;;;;;6242919;23;20368;-80
2023/05/16 03:06:19;;;;;;;17.52;3.00;;;;;;;;;;6242282;23;20365;-80
2023/05/16 03:08:45;;;;;;;15.83;3.20;;;;;;;;;;6243709;23;20396;-81
2023/05/16 03:11:12;;;;;;;17.73;3.00;;;;;;;;;;6242379;23;20928;-81
2023/05/16 03:13:38;;;;;;;15.60;3.70;;;;;;;;;;6243934;23;20385;-82
2023/05/16 03:16:04;;;;;;;11.98;3.17;;;;;;;;;;6218634;23;20868;-82
2023/05/16 03:18:30;;;;;;;14.98;3.60;;;;;;;;;;6218638;23;21173;-82
2023/05/16 03:20:57;;;;;;;12.52;3.38;;;;;;;;;;6243666;23;20366;-81
2023/05/16 03:23:23;;;;;;;14.85;3.47;;;;;;;;;;6243343;23;20397;-81
2023/05/16 03:25:49;;;;;;;16.45;3.42;;;;;;;;;;6218639;23;20366;-81
2023/05/16 03:28:16;;;;;;;14.70;3.65;;;7.00;99.90;;;;;;6243518;23;20370;-81
2023/05/16 03:30:43;;;;;;;17.80;3.45;;;;;;;;;;6243972;23;20469;-81
2023/05/16 03:33:09;;;;;;;14.23;3.40;;;;;;;;;;6243104;23;20858;-81
2023/05/16 03:35:35;;;;;;;11.30;3.00;;;7.00;99.90;;;;;;6243537;23;20688;-81
2023/05/16 03:38:01;;;;;;;15.77;3.67;;;;;;;;;;6243584;23;20448;-81
2023/05/16 03:40:27;;;;;;;15.77;3.55;;;;;;;;;;6218062;23;20453;-81
2023/05/16 03:42:54;;;;;;;14.07;3.22;;;;;;;;;;6242991;23;20366;-80
2023/05/16 03:45:20;;;;;;;13.82;3.13;;;;;;;;;;6217010;23;20419;-81
2023/05/16 03:47:46;;;;;;;12.85;2.90;;;;;;;;;;6217949;23;20411;-81
2023/05/16 03:50:12;;;;;;;15.70;2.85;;;;;;;;;;6217016;23;21216;-81
2023/05/16 03:52:38;;;;;;;11.77;3.05;;;;;;;;;;6218736;23;20394;-80
2023/05/16 03:55:05;;;;;;;12.37;2.60;;;;;;;;;;6243759;23;20370;-80
2023/05/16 03:57:31;;;;;;;18.42;4.00;;;7.00;99.90;;;;;;6242710;23;20416;-80
2023/05/16 03:59:57;;;;;;;12.00;2.67;;;;;;;;;;6247479;23;20768;-79
2023/05/16 04:02:23;;;;;;;12.85;3.10;;;;;;;;;;6247092;23;20369;-80
2023/05/16 04:04:50;;;;;;;13.60;3.63;;;;;;;;;;6242874;23;20452;-80
2023/05/16 04:07:16;;;;;;;13.80;3.13;;;;;;;;;;6217934;23;20743;-80
2023/05/16 04:09:42;;;;;;;9.93;2.88;;;;;;;;;;6242827;23;20370;-79
2023/05/16 04:12:08;;;;;;;16.30;3.07;;;;;;;;;;6192428;23;20392;-80
2023/05/16 04:14:34;;;;;;;13.52;3.30;;;7.10;99.90;;;;;;6242675;23;20439;-81
2023/05/16 04:17:00;;;;;;;11.77;3.00;;;;;;;;;;6242696;23;20539;-81
2023/05/16 04:19:26;;;;;;;15.43;3.30;;;;;;;;;;6242946;23;20366;-81
2023/05/16 04:21:52;;;;;;;13.73;2.90;;;;;;;;;;6242545;23;20400;-80
2023/05/16 04:24:18;;;;;;;16.60;3.23;;;;;;;;;;6242876;23;20540;-81
2023/05/16 04:26:45;;;;;;;19.75;3.50;;;;;;;;;;6216373;23;20372;-80
2023/05/16 04:29:12;;;;;;;13.15;3.50;;;;;;;;;;6241893;23;20850;-81
2023/05/16 04:31:38;;;;;;;13.63;3.03;;;;;;;;;;6240777;23;20755;-81
2023/05/16 04:34:04;;;;;;;11.67;2.80;;;;;;;;;;6242319;23;20358;-81
2023/05/16 04:36:31;;;;;;;15.37;3.00;;;;;;;;;;6216903;23;20550;-81
2023/05/16 04:38:57;;;;;;;15.17;3.40;;;;;;;;;;6192343;23;20719;-80
2023/05/16 04:41:24;;;;;;;15.80;3.83;;;;;;;;;;6191705;23;20416;-80
2023/05/16 04:43:50;;;;;;;14.00;3.13;;;;;;;;;;6243617;23;20877;-81
2023/05/16 04:46:16;;;;;;;13.32;2.90;;;;;;;;;;6244274;23;20380;-81
2023/05/16 04:48:42;;;;;;;12.77;3.10;;;;;;;;;;6246412;23;20369;-79
2023/05/16 04:51:08;;;;;;;16.90;3.63;;;;;;;;;;6219866;23;20772;-81
2023/05/16 04:53:34;;;;;;;15.90;3.08;;;;;;;;;;6220681;23;20420;-81
2023/05/16 04:56:00;;;;;;;15.73;3.50;;;;;;;;;;6245601;23;20827;-81
2023/05/16 04:58:27;;;;;;;12.60;3.13;;;;;;;;;;6218015;23;20727;-81
2023/05/16 05:00:54;;;;;;;11.02;2.97;;;7.60;99.90;;;;;;6193816;23;20457;-82
2023/05/16 05:03:20;;;;;;;14.50;3.13;;;;;;;;;;6245987;23;20960;-81
2023/05/16 05:05:47;;;;;;;16.83;3.25;;;;;;;;;;6245001;23;20366;-81
2023/05/16 05:08:13;;;;;;;16.70;3.78;;;;;;;;;;6219009;23;20373;-80
2023/05/16 05:10:39;;;;;;;13.98;3.45;;;;;;;;;;6244086;23;20853;-80
2023/05/16 05:13:06;;;;;;;14.45;3.38;;;;;;;;;;6243636;23;20681;-80
2023/05/16 05:15:32;;;;;;;10.93;3.05;;;;;;;;;;6217717;23;20373;-83
2023/05/16 05:17:58;;;;;;;17.70;3.40;;;;;;;;;;6192927;23;20370;-84
2023/05/16 05:20:24;;;;;;;12.50;3.07;;;;;;;;;;6217383;23;20361;-82
2023/05/16 05:22:50;;;;;;;12.93;3.30;;;;;;;;;;6214940;23;20370;-84
2023/05/16 05:25:16;;;;;;;14.82;2.75;;;;;;;;;;6242652;23;20394;-80
2023/05/16 05:27:42;;;;;;;15.02;3.50;;;;;;;;;;6215867;23;20366;-81
2023/05/16 05:30:09;;;;;;;10.50;2.95;;;;;;;;;;6239741;23;20771;-80
2023/05/16 05:32:35;;;;;;;15.93;3.13;;;;;;;;;;6239550;23;20477;-79
2023/05/16 05:35:01;;;;;;;12.30;2.70;;;;;;;;;;6217699;23;20366;-79
2023/05/16 05:37:28;;;;;;;11.43;2.63;;;;;;;;;;6242093;23;20362;-79
2023/05/16 05:39:54;;;;;;;11.35;2.80;;;;;;;;;;6240164;23;20372;-80
2023/05/16 05:42:20;;;;;;;15.50;2.73;;;;;;;;;;6217388;23;20919;-80
2023/05/16 05:44:46;;;;;;;9.90;2.40;;;;;;;;;;6241822;23;20408;-80
2023/05/16 05:47:12;;;;;;;11.57;2.72;;;;;;;;;;6192206;23;20366;-81
2023/05/16 05:49:38;;;;;;;10.20;2.40;;;;;;;;;;6217301;23;20369;-82
2023/05/16 05:52:05;;;;;;;11.85;2.63;;;;;;;;;;6216825;23;20848;-81
2023/05/16 05:54:31;;;;;;;12.10;2.42;;;;;;;;;;6190870;23;20370;-81
2023/05/16 05:56:57;;;;;;;10.75;2.47;;;;;;;;;;6218719;23;20369;-82
2023/05/16 05:59:23;;;;;;;10.40;2.40;;;;;;;;;;6241682;23;20673;-82
2023/05/16 06:01:52;;;;;;;9.60;2.67;;;;;;;;;;6243499;23;20381;-81
2023/05/16 06:04:19;;;;;;;14.70;2.67;;;9.50;99.90;;;;;;6216500;23;20370;-82
2023/05/16 06:06:45;;;;;;;9.27;2.38;;;;;;;;;;6241465;23;20393;-80
2023/05/16 06:09:13;;;;;;;12.77;2.45;;;;;;;;;;6239850;23;20370;-80
2023/05/16 06:11:40;;;;;;;10.23;2.33;;;;;;;;;;6241047;23;20390;-80
2023/05/16 06:14:06;;;;;;;19.60;2.60;;;;;;;;;;6242021;23;20389;-80
2023/05/16 06:16:32;;;;;;;10.77;2.00;;;;;;;;;;6242865;23;20397;-81
2023/05/16 06:18:58;;;;;;;6.07;1.63;;;;;;;;;;6242747;23;20422;-79
2023/05/16 06:21:24;;;;;;;9.13;2.33;;;;;;;;;;6217272;23;20453;-79
2023/05/16 06:23:50;;;;;;;6.05;1.48;;;;;;;;;;6213475;23;20365;-79
2023/05/16 06:26:16;;;;;;;6.55;1.60;;;;;;;;;;6213667;23;20377;-78
2023/05/16 06:28:42;;;;;;;8.00;1.60;;;;;;;;;;6213930;23;20692;-78
2023/05/16 06:31:09;;;;;;;7.55;1.58;;;;;;;;;;6190139;23;20394;-79
2023/05/16 06:33:35;;;;;;;10.20;2.13;;;;;;;;;;6214665;23;20366;-79
2023/05/16 06:36:01;;;;;;;7.63;1.65;;;;;;;;;;6241672;23;20362;-78
2023/05/16 06:38:27;;;;;;;10.00;2.17;;;;;;;;;;6241976;23;20846;-78
2023/05/16 06:40:53;;;;;;;7.35;2.10;;;;;;;;;;6241050;23;20398;-78
2023/05/16 06:43:19;;;;;;;7.68;1.98;;;;;;;;;;6216530;23;20739;-78
2023/05/16 06:45:45;;;;;;;8.63;2.13;;;;;;;;;;6241222;23;20927;-78
2023/05/16 06:48:14;;;;;;;11.70;1.95;;;8.50;99.90;;;;;;6238790;23;20824;-77
2023/05/16 06:50:40;;;;;;;6.80;1.50;;;;;;;;;;6237928;23;20417;-77
2023/05/16 06:53:06;;;;;;;9.32;1.70;;;;;;;;;;6238417;23;20377;-76
2023/05/16 06:55:35;;;;;;;8.00;2.10;;;;;;;;;;6238985;23;20366;-76
2023/05/16 06:58:01;;;;;;;9.93;2.03;;;;;;;;;;6214259;23;20366;-82
2023/05/16 07:00:27;;;;;;;7.40;1.83;;;;;;;;;;6237197;23;20366;-80
2023/05/16 07:02:53;;;;;;;6.63;1.58;;;;;;;;;;6238694;23;20369;-80
2023/05/16 07:05:19;;;;;;;9.95;1.98;;;;;;;;;;6215504;23;20448;-79
2023/05/16 07:07:46;;;;;;;6.72;1.90;;;;;;;;;;6242327;23;20362;-80
2023/05/16 07:10:12;;;;;;;7.88;2.05;;;;;;;;;;6240926;23;20367;-78
2023/05/16 07:12:40;;;;;;;8.95;1.80;;;;;;;;;;6234980;23;20393;-78
2023/05/16 07:15:07;;;;;;;9.70;1.90;;;;;;;;;;6214933;23;20468;-78
2023/05/16 07:17:33;;;;;;;10.30;2.10;;;;;;;;;;6212927;23;20450;-77
2023/05/16 07:19:59;;;;;;;10.00;2.10;;;;;;;;;;6214548;23;20424;-78
2023/05/16 07:22:25;;;;;;;10.68;2.08;;;;;;;;;;6213132;23;20412;-79
2023/05/16 07:24:55;;;;;;;11.02;2.30;;;;;;;;;;6215039;23;20365;-78
2023/05/16 07:27:22;;;;;;;14.43;2.25;;;;;;;;;;6214127;23;20662;-78
2023/05/16 07:29:48;;;;;;;11.25;1.98;;;;;;;;;;6239097;23;20373;-78
2023/05/16 07:32:15;;;;;;;14.98;2.35;;;;;;;;;;6214144;23;20432;-78
2023/05/16 07:34:41;;;;;;;7.07;1.63;;;;;;;;;;6212147;23;20371;-78
2023/05/16 07:37:11;;;;;;;9.38;1.80;;;;;;;;;;6214497;23;20362;-78
2023/05/16 07:39:38;;;;;;;9.77;2.27;;;;;;;;;;6213711;23;20463;-77
2023/05/16 07:42:04;;;;;;;8.50;2.15;;;;;;;;;;6211335;23;20371;-77
2023/05/16 07:44:30;;;;;;;8.20;2.47;;;;;;;;;;6240330;23;20366;-78
2023/05/16 07:46:56;;;;;;;9.07;2.00;;;;;;;;;;6212731;23;20444;-77
2023/05/16 07:49:22;;;;;;;9.02;2.00;;;;;;;;;;6213657;23;20369;-77
2023/05/16 07:51:48;;;;;;;13.00;2.40;;;;;;;;;;6237444;23;20440;-78
2023/05/16 07:54:14;;;;;;;8.55;1.90;;;;;;;;;;6237956;23;20855;-78
2023/05/16 07:56:40;;;;;;;7.60;1.83;;;;;;;;;;6239026;23;20361;-78
2023/05/16 07:59:07;;;;;;;12.05;2.28;;;;;;;;;;6212892;23;20385;-77
2023/05/16 08:01:33;;;;;;;12.98;2.35;;;;;;;;;;6237987;23;20378;-78
2023/05/16 08:03:59;;;;;;;9.75;2.42;;;;;;;;;;6212759;23;20741;-76
2023/05/16 08:06:25;;;;;;;10.70;2.03;;;;;;;;;;6238033;23;20429;-75
2023/05/16 08:08:51;;;;;;;14.20;2.87;;;;;;;;;;6239324;23;20365;-77
2023/05/16 08:11:18;;;;;;;10.60;2.00;;;;;;;;;;6212857;23;20743;-78
2023/05/16 08:13:44;;;;;;;8.50;1.83;;;;;;;;;;6235857;23;20417;-77
2023/05/16 08:16:10;;;;;;;8.75;2.13;;;;;;;;;;6237996;23;20460;-81
2023/05/16 08:18:37;;;;;;;7.95;2.10;;;;;;;;;;6216242;23;20836;-82
2023/05/16 08:21:03;;;;;;;6.30;1.70;;;;;;;;;;6216712;23;20372;-82
2023/05/16 08:23:29;;;;;;;7.10;1.42;;;;;;;;;;6240992;23;20370;-81
2023/05/16 08:25:56;;;;;;;6.15;1.58;;;;;;;;;;6241107;23;20416;-81
2023/05/16 08:28:22;;;;;;;8.00;1.60;;;;;;;;;;6215596;23;20366;-81
2023/05/16 08:30:48;;;;;;;6.68;1.75;;;;;;;;;;6240339;23;20417;-81
2023/05/16 08:33:14;;;;;;;9.60;2.15;;;;;;;;;;6216306;23;20361;-80
2023/05/16 08:35:44;;;;;;;10.10;2.08;;;;;;;;;;6191532;23;20366;-82
2023/05/16 08:38:10;;;;;;;9.03;1.90;;;;;;;;;;6214645;23;20372;-82
2023/05/16 08:40:36;;;;;;;10.65;2.35;;;;;;;;;;6214332;23;20367;-83
2023/05/16 08:43:02;;;;;;;6.80;1.90;;;;;;;;;;6215253;23;20420;-82
2023/05/16 08:45:30;;;;;;;14.23;2.30;;;12.50;99.90;;;;;;6217060;23;20685;-82
2023/05/16 08:47:56;;;;;;;20.15;3.38;;;;;;;;;;6244244;23;20361;-82
2023/05/16 08:50:24;;;;;;;10.00;2.20;;;;;;;;;;6241437;23;20427;-82
2023/05/16 08:52:53;;;;;;;9.50;2.13;;;;;;;;;;6240238;23;20650;-82
2023/05/16 08:55:23;;;;;;;7.13;1.83;;;;;;;;;;6239578;23;20408;-81
2023/05/16 08:57:53;;;;;;;7.53;2.10;;;;;;;;;;6241215;23;20419;-82
2023/05/16 09:00:19;;;;;;;9.52;2.17;;;;;;;;;;6240807;23;20684;-83
2023/05/16 09:02:45;;;;;;;7.15;1.70;;;;;;;;;;6240170;23;20925;-82
2023/05/16 09:05:13;;;;;;;8.57;1.70;;;;;;;;;;6191267;23;20433;-82
2023/05/16 09:07:39;;;;;;;9.67;1.83;;;;;;;;;;6240970;23;20376;-81
2023/05/16 09:10:06;;;;;;;7.45;1.70;;;13.50;99.90;;;;;;6242744;23;20676;-82
2023/05/16 09:12:35;;;;;;;7.07;1.73;;;;;;;;;;6239350;23;20917;-81
2023/05/16 09:15:02;;;;;;;7.60;1.70;;;13.20;99.90;;;;;;6240756;23;20712;-81
2023/05/16 09:17:35;;;;;;;9.23;2.53;;;13.20;99.90;;;;;;6216101;23;20362;-80
2023/05/16 09:20:08;;;;;;;7.55;1.55;;;;;;;;;;6242619;23;20358;-79
2023/05/16 09:22:34;;;;;;;7.25;1.67;;;;;;;;;;6240003;23;20369;-80
2023/05/16 09:25:00;;;;;;;6.93;1.80;;;;;;;;;;6215722;23;20416;-81
2023/05/16 09:27:26;;;;;;;11.68;2.03;;;;;;;;;;6214538;23;20405;-81
2023/05/16 09:29:52;;;;;;;6.82;1.70;;;;;;;;;;6216235;23;20373;-81
2023/05/16 09:32:18;;;;;;;9.50;2.17;;;;;;;;;;6216640;23;20389;-80
2023/05/16 09:34:47;;;;;;;8.45;2.13;;;;;;;;;;6215935;23;20394;-81
2023/05/16 09:37:14;;;;;;;11.57;2.00;;;;;;;;;;6242672;23;20913;-80
2023/05/16 09:39:45;;;;;;;10.45;1.90;;;;;;;;;;6239154;23;20396;-81
2023/05/16 09:42:11;;;;;;;10.32;2.25;;;;;;;;;;6214709;23;20743;-81
2023/05/16 09:44:38;;;;;;;11.98;2.38;;;;;;;;;;6238967;23;20384;-81
2023/05/16 09:47:04;;;;;;;7.00;1.80;;;;;;;;;;6216512;23;20420;-81
2023/05/16 09:49:30;;;;;;;10.40;1.87;;;;;;;;;;6240835;23;20390;-81
2023/05/16 09:52:00;;;;;;;9.93;2.03;;;13.00;99.90;;;;;;6240793;23;20377;-81
2023/05/16 09:54:33;;;;;;;11.13;1.90;;;;;;;;;;6241281;23;20409;-82
2023/05/16 09:56:59;;;;;;;7.65;1.98;;;;;;;;;;6243120;23;20738;-82
2023/05/16 09:59:25;;;;;;;7.22;1.70;;;;;;;;;;6242793;23;20361;-82
2023/05/16 10:01:53;;;;;;;8.60;1.90;;;;;;;;;;6219204;23;20366;-80
2023/05/16 10:04:19;;;;;;;6.60;1.90;;;;;;;;;;6244229;23;20688;-82
2023/05/16 10:06:45;;;;;;;8.70;1.73;;;;;;;;;;6241446;23;20365;-82
2023/05/16 10:09:12;;;;;;;7.43;1.75;;;13.10;99.90;;;;;;6219341;23;20445;-84
2023/05/16 10:11:41;;;;;;;10.60;2.15;;;;;;;;;;6194481;23;20416;-82
2023/05/16 10:14:08;;;;;;;8.05;1.70;;;;;;;;;;6219360;23;20384;-82
2023/05/16 10:16:34;;;;;;;7.78;1.80;;;;;;;;;;6241938;23;20696;-81
2023/05/16 10:19:02;;;;;;;7.35;1.77;;;;;;;;;;6193267;23;20389;-81
2023/05/16 10:21:29;;;;;;;6.73;1.60;;;;;;;;;;6218731;23;20369;-82
2023/05/16 10:23:58;;;;;;;6.53;1.75;;;;;;;;;;6244617;23;20375;-82
2023/05/16 10:26:25;;;;;;;6.27;1.50;;;;;;;;;;6243140;23;20365;-82
2023/05/16 10:28:52;;;;;;;5.97;1.52;;;;;;;;;;6242561;23;20370;-80
2023/05/16 10:31:18;;;;;;;6.93;1.40;;;;;;;;;;6243113;23;20386;-82
2023/05/16 10:33:45;;;;;;;5.18;1.40;;;;;;;;;;6244117;23;20366;-82
2023/05/16 10:36:11;;;;;;;5.95;1.70;;;;;;;;;;6243278;23;20366;-82
2023/05/16 10:38:38;;;;;;;6.90;1.77;;;;;;;;;;6215630;23;20404;-81
2023/05/16 10:41:04;;;;;;;6.85;1.67;;;;;;;;;;6241410;23;20370;-81
2023/05/16 10:43:32;;;;;;;7.95;1.98;;;;;;;;;;6243116;23;20366;-81
2023/05/16 10:46:08;;;;;;;13.82;2.10;;;13.40;99.90;;;;;;6216598;23;20401;-81
2023/05/16 10:48:41;;;;;;;7.25;2.13;;;;;;;;;;6218511;23;20377;-81
2023/05/16 10:51:22;;;;;;;7.97;2.00;;;;;;;;;;6218979;23;20863;-81
2023/05/16 10:53:52;;;;;;;7.72;1.73;;;;;;;;;;6243369;23;20401;-81
2023/05/16 10:56:25;;;;;;;8.43;1.67;;;;;;;;;;6217188;23;20428;-80
2023/05/16 10:58:52;;;;;;;7.75;1.85;;;;;;;;;;6241746;23;20365;-81
2023/05/16 11:01:23;;;;;;;7.00;1.77;;;13.50;99.90;;;;;;6216053;23;20401;-82
2023/05/16 11:03:59;;;;;;;5.00;1.88;;;;;;;;;;6241640;23;20400;-82
2023/05/16 11:06:28;;;;;;;8.23;2.00;;;;;;;;;;6239974;23;20377;-81
2023/05/16 11:09:09;;;;;;;7.70;2.00;;;;;;;;;;6237786;23;20408;-82
2023/05/16 11:11:46;;;;;;;7.57;1.80;;;;;;;;;;6241555;23;20960;-83
2023/05/16 11:14:31;;;;;;;8.07;1.90;;;;;;;;;;6216705;23;20382;-81
2023/05/16 11:17:03;;;;;;;8.20;1.90;;;;;;;;;;6215791;23;20366;-81
2023/05/16 11:19:30;;;;;;;7.77;2.00;;;;;;;;;;6241300;23;20923;-82
2023/05/16 11:22:06;;;;;;;9.68;1.98;;;;;;;;;;6241218;23;20366;-83
2023/05/16 11:24:34;;;;;;;8.65;2.08;;;;;;;;;;6240064;23;20372;-83
2023/05/16 11:27:00;;;;;;;8.75;1.77;;;;;;;;;;6214419;23;20382;-83
2023/05/16 11:29:28;;;;;;;8.57;2.03;;;12.70;99.90;;;;;;6190528;23;20370;-81
2023/05/16 11:31:54;;;;;;;6.53;1.90;;;;;;;;;;6242442;23;20386;-81
2023/05/16 11:34:20;;;;;;;8.30;2.10;;;;;;;;;;6239847;23;20366;-80
2023/05/16 11:36:47;;;;;;;9.25;2.03;;;;;;;;;;6241317;23;20366;-82
2023/05/16 11:39:13;;;;;;;11.45;2.08;;;;;;;;;;6239804;23;21107;-82
2023/05/16 11:41:39;;;;;;;8.82;2.33;;;;;;;;;;6188739;23;20828;-82
2023/05/16 11:44:06;;;;;;;10.73;2.80;;;;;;;;;;6214422;23;20443;-81
2023/05/16 11:46:33;;;;;;;9.68;2.10;;;13.30;99.90;;;;;;6215524;23;20409;-81
2023/05/16 11:48:59;;;;;;;7.85;2.20;;;;;;;;;;6214355;23;20421;-82
2023/05/16 11:51:26;;;;;;;13.27;2.53;;;;;;;;;;6211464;23;20421;-83
2023/05/16 11:53:52;;;;;;;9.77;2.20;;;;;;;;;;6241026;23;20369;-83
2023/05/16 11:56:22;;;;;;;7.38;2.10;;;;;;;;;;6237350;23;20369;-82
2023/05/16 11:58:49;;;;;;;8.13;2.50;;;;;;;;;;6239610;23;20401;-83
2023/05/16 12:01:15;;;;;;;11.40;2.83;;;;;;;;;;6189435;23;20832;-82
2023/05/16 12:03:41;;;;;;;9.40;2.40;;;;;;;;;;6237857;23;20366;-83
2023/05/16 12:06:07;;;;;;;7.53;2.30;;;13.70;99.90;;;;;;6215963;23;20381;-83
2023/05/16 12:08:34;;;;;;;7.57;2.28;;;;;;;;;;6209331;23;20376;-83
2023/05/16 12:11:00;;;;;;;10.85;2.90;;;;;;;;;;6191224;23;20394;-83
2023/05/16 12:13:26;;;;;;;9.15;2.60;;;;;;;;;;6215488;23;20389;-83
2023/05/16 12:15:52;;;;;;;9.63;2.75;;;;;;;;;;6238814;23;20389;-82
2023/05/16 12:18:19;;;;;;;11.00;3.03;;;;;;;;;;6215523;23;20381;-82
2023/05/16 12:20:46;;;;;;;7.20;2.47;;;;;;;;;;6240980;23;20362;-81
2023/05/16 12:23:13;;;;;;;7.05;2.63;;;13.60;99.90;;;;;;6240602;23;20444;-81
2023/05/16 12:25:44;;;;;;;8.07;2.53;;;;;;;;;;6214241;23;20372;-81
2023/05/16 12:28:12;;;;;;;7.18;2.60;;;14.10;99.90;;;;;;6241180;23;20366;-81
2023/05/16 12:30:43;;;;;;;7.90;2.80;;;13.90;99.90;;;;;;6237194;23;20417;-81
2023/05/16 12:33:14;;;;;;;9.02;2.65;;;;;;;;;;6239015;23;20453;-81
2023/05/16 12:35:46;;;;;;;7.82;2.47;;;13.20;99.90;;;;;;6241429;23;20389;-80
2023/05/16 12:38:16;;;;;;;12.80;3.00;;;13.30;99.90;;;;;;6240375;23;20401;-82
2023/05/16 12:40:43;;;;;;;7.20;2.85;;;13.50;99.90;;;;;;6239646;23;20369;-82
2023/05/16 12:43:13;;;;;;;9.00;3.00;;;;;;;;;;6218188;23;20362;-81
2023/05/16 12:45:39;;;;;;;9.02;2.80;;;;;;;;;;6242590;23;20693;-82
2023/05/16 12:48:11;;;;;;;8.68;3.10;;;;;;;;;;6239659;23;20443;-83
2023/05/16 12:50:38;;;;;;;7.67;2.83;;;;;;;;;;6216975;23;20858;-81
2023/05/16 12:53:06;;;;;;;7.15;2.92;;;;;;;;;;6240245;23;20405;-81
2023/05/16 12:55:32;;;;;;;9.80;3.20;;;;;;;;;;6242733;23;20747;-81
2023/05/16 12:58:00;;;;;;;10.70;3.10;;;13.70;99.90;;;;;;6217435;23;20362;-80
2023/05/16 13:00:26;;;;;;;7.67;3.03;;;;;;;;;;6242029;23;20445;-81
2023/05/16 13:02:53;;;;;;;10.98;3.67;;;;;;;;;;6192672;23;20370;-81
2023/05/16 13:05:22;;;;;;;8.40;3.13;;;;;;;;;;6243227;23;20453;-82
2023/05/16 13:07:50;;;;;;;7.22;3.10;;;;;;;;;;6239649;23;20405;-80
2023/05/16 13:10:16;;;;;;;8.30;3.05;;;;;;;;;;6242374;23;20692;-82
2023/05/16 13:12:42;;;;;;;7.03;3.00;;;;;;;;;;6218074;23;20868;-81
2023/05/16 13:15:10;;;;;;;7.43;2.97;;;13.50;99.90;;;;;;6217584;23;20389;-82
2023/05/16 13:17:37;;;;;;;7.13;3.38;;;;;;;;;;6217670;23;20362;-82
2023/05/16 13:20:08;;;;;;;7.47;3.07;;;13.20;99.90;;;;;;6217611;23;20467;-82
2023/05/16 13:22:37;;;;;;;9.75;3.10;;;;;;;;;;6192608;23;20373;-82
2023/05/16 13:25:04;;;;;;;7.88;3.10;;;;;;;;;;6218530;23;20428;-79
2023/05/16 13:27:31;;;;;;;10.20;3.10;;;;;;;;;;6243063;23;20366;-80
2023/05/16 13:29:57;;;;;;;8.05;2.92;;;;;;;;;;6240993;23;20432;-79
2023/05/16 13:32:24;;;;;;;6.22;2.60;;;;;;;;;;6218490;23;20928;-80
2023/05/16 13:34:50;;;;;;;6.57;2.90;;;;;;;;;;6243607;23;20370;-81
2023/05/16 13:37:16;;;;;;;8.35;3.70;;;;;;;;;;6219601;23;20362;-81
2023/05/16 13:39:42;;;;;;;9.98;3.05;;;;;;;;;;6242974;23;20365;-81
2023/05/16 13:42:08;;;;;;;9.85;3.40;;;13.30;99.90;;;;;;6244267;23;20428;-81
2023/05/16 13:44:35;;;;;;;9.95;2.90;;;;;;;;;;6216948;23;20365;-79
2023/05/16 13:47:01;;;;;;;10.30;3.40;;;;;;;;;;6216318;23;20452;-81
2023/05/16 13:49:27;;;;;;;8.23;3.28;;;;;;;;;;6214989;23;20938;-81
2023/05/16 13:51:53;;;;;;;10.18;3.60;;;;;;;;;;6240704;23;20393;-81
2023/05/16 13:54:21;;;;;;;8.65;3.20;;;;;;;;;;6217595;23;20862;-80
2023/05/16 13:56:47;;;;;;;8.50;3.22;;;;;;;;;;6244500;23;20393;-81
2023/05/16 13:59:14;;;;;;;8.02;3.10;;;;;;;;;;6217192;23;20428;-81
2023/05/16 14:01:40;;;;;;;9.20;3.20;;;;;;;;;;6218373;23;20950;-82
2023/05/16 14:04:06;;;;;;;8.70;3.03;;;;;;;;;;6245781;23;20843;-82
2023/05/16 14:06:33;;;;;;;7.63;2.83;;;;;;;;;;6218264;23;20370;-81
2023/05/16 14:08:59;;;;;;;6.50;2.80;;;;;;;;;;6242646;23;20366;-82
2023/05/16 14:11:26;;;;;;;7.45;2.55;;;;;;;;;;6243991;23;20378;-83
2023/05/16 14:13:55;;;;;;;9.23;2.90;;;;;;;;;;6217194;23;20409;-82
2023/05/16 14:16:21;;;;;;;6.57;2.50;;;;;;;;;;6245970;23;20374;-81
2023/05/16 14:18:48;;;;;;;8.20;2.90;;;;;;;;;;6243935;23;20366;-81
2023/05/16 14:21:14;;;;;;;8.13;2.60;;;;;;;;;;6241611;23;20752;-81
2023/05/16 14:23:40;;;;;;;7.10;2.75;;;;;;;;;;6216339;23;20680;-77